Time;durP1;ratioP1;P1;durP2;ratioP2;P2;SDS_P1;SDS_P2;PMS_P1;PMS_P2;Temp;Humidity;BMP_temperature;BMP_pressure;BME280_temperature;BME280_humidity;BME280_pressure;Samples;Min_cycle;Max_cycle;Signal;HPM_P1;HPM_P2
2021/09/01 00:02:17;;;;;;;16.30;7.37;;;;;;;;;;5096716;28;20473;-74
2021/09/01 00:04:44;;;;;;;14.40;7.40;;;;;;;;;;5096235;28;20436;-74
2021/09/01 00:07:11;;;;;;;13.10;7.83;;;;;;;;;;5096180;28;20441;-74
2021/09/01 00:09:40;;;;;;;15.20;6.80;;;;;;;;;;5096102;28;20450;-74
2021/09/01 00:12:07;;;;;;;11.27;6.50;;;;;;;;;;5096069;28;20534;-74
2021/09/01 00:14:35;;;;;;;9.50;6.67;;;;;;;;;;5096001;28;20536;-75
2021/09/01 00:17:02;;;;;;;15.57;6.37;;;;;;;;;;5095654;28;20441;-76
2021/09/01 00:19:30;;;;;;;8.60;6.10;;;;;;;;;;5095946;28;20470;-74
2021/09/01 00:21:57;;;;;;;12.63;7.27;;;;;;;;;;5096233;28;20473;-74
2021/09/01 00:24:24;;;;;;;10.80;6.57;;;;;;;;;;5096188;28;20522;-74
2021/09/01 00:26:53;;;;;;;12.47;7.33;;;;;;;;;;5095514;28;20436;-74
2021/09/01 00:29:20;;;;;;;12.90;7.00;;;;;;;;;;5095758;28;20510;-74
2021/09/01 00:31:47;;;;;;;12.17;7.70;;;;;;;;;;5095727;28;20444;-74
2021/09/01 00:34:15;;;;;;;10.03;7.17;;;;;;;;;;5095363;28;20432;-74
2021/09/01 00:36:42;;;;;;;12.87;8.40;;;;;;;;;;5095996;28;20450;-74
2021/09/01 00:39:09;;;;;;;12.30;7.10;;;;;;;;;;5095186;28;20439;-74
2021/09/01 00:41:36;;;;;;;13.40;7.37;;;;;;;;;;5095459;28;20503;-74
2021/09/01 00:44:18;;;;;;;12.57;7.87;;;;;;;;;;5095619;28;20436;-74
2021/09/01 00:46:46;;;;;;;15.37;8.20;;;;;;;;;;5095645;28;20511;-74
2021/09/01 00:49:14;;;;;;;10.40;7.57;;;;;;;;;;5095011;28;20440;-74
2021/09/01 00:51:42;;;;;;;12.13;7.03;;;;;;;;;;5095649;28;20459;-75
2021/09/01 00:54:11;;;;;;;14.97;6.83;;;;;;;;;;5095467;28;20545;-74
2021/09/01 00:56:38;;;;;;;15.30;7.90;;;;;;;;;;5095197;28;20800;-75
2021/09/01 00:59:05;;;;;;;10.50;6.83;;;;;;;;;;5094686;28;20534;-74
2021/09/01 01:01:37;;;;;;;12.83;6.67;;;;;;;;;;5095022;28;20566;-74
2021/09/01 01:04:04;;;;;;;17.43;7.53;;;;;;;;;;5095258;28;20809;-75
2021/09/01 01:06:31;;;;;;;9.20;6.20;;;;;;;;;;5095549;28;20519;-75
2021/09/01 01:08:59;;;;;;;14.90;6.47;;;;;;;;;;5095006;28;20538;-74
2021/09/01 01:11:26;;;;;;;15.47;6.90;;;;;;;;;;5094660;28;20448;-75
2021/09/01 01:13:53;;;;;;;12.83;5.87;;;;;;;;;;5094908;28;20476;-74
2021/09/01 01:16:21;;;;;;;13.40;6.83;;;;;;;;;;5094829;28;20522;-74
2021/09/01 01:18:50;;;;;;;16.83;7.83;;;;;;;;;;5094769;28;20789;-74
2021/09/01 01:21:19;;;;;;;14.93;6.90;;;;;;;;;;5094344;28;20449;-74
2021/09/01 01:23:48;;;;;;;13.50;7.27;;;;;;;;;;5094345;28;20447;-74
2021/09/01 01:26:16;;;;;;;16.47;7.10;;;;;;;;;;5094328;28;20436;-74
2021/09/01 01:28:43;;;;;;;10.30;7.23;;;;;;;;;;5094735;28;20436;-74
2021/09/01 01:31:10;;;;;;;14.50;7.20;;;;;;;;;;5094575;28;20444;-71
2021/09/01 01:33:38;;;;;;;17.73;7.60;;;;;;;;;;5094205;28;20454;-75
2021/09/01 01:36:05;;;;;;;12.00;6.97;;;;;;;;;;5094491;28;20440;-74
2021/09/01 01:38:32;;;;;;;16.23;6.80;;;;;;;;;;5094494;28;20794;-74
2021/09/01 01:40:59;;;;;;;23.63;7.67;;;;;;;;;;5094393;28;20527;-74
2021/09/01 01:43:31;;;;;;;12.80;6.50;;;;;;;;;;5094394;28;20481;-74
2021/09/01 01:45:58;;;;;;;14.80;6.73;;;;;;;;;;5094674;28;20453;-74
2021/09/01 01:48:25;;;;;;;14.63;7.10;;;;;;;;;;5094178;28;20464;-74
2021/09/01 01:50:52;;;;;;;12.70;6.87;;;;;;;;;;5093860;28;20938;-74
2021/09/01 01:53:20;;;;;;;12.50;6.97;;;;;;;;;;5093764;28;20472;-74
2021/09/01 01:55:47;;;;;;;14.43;6.03;;;;;;;;;;5094115;28;20446;-74
2021/09/01 01:58:14;;;;;;;11.37;6.23;;;;;;;;;;5093789;28;20444;-74
2021/09/01 02:00:43;;;;;;;11.23;6.23;;;;;;;;;;5094231;28;20958;-74
2021/09/01 02:03:10;;;;;;;15.77;6.20;;;;;;;;;;5093967;28;20483;-74
2021/09/01 02:05:37;;;;;;;10.63;6.30;;;;;;;;;;5093728;28;20436;-74
2021/09/01 02:08:04;;;;;;;17.47;7.60;;;;;;;;;;5093979;28;20954;-74
2021/09/01 02:10:32;;;;;;;10.37;6.47;;;;;;;;;;5093558;28;20565;-74
2021/09/01 02:12:59;;;;;;;8.97;6.47;;;;;;;;;;5094252;28;20814;-74
2021/09/01 02:15:26;;;;;;;18.90;7.80;;;;;;;;;;5094145;28;20440;-74
2021/09/01 02:17:55;;;;;;;17.13;6.57;;;;;;;;;;5093446;28;20444;-74
2021/09/01 02:20:22;;;;;;;13.53;6.07;;;;;;;;;;5094333;28;20483;-74
2021/09/01 02:22:49;;;;;;;15.13;5.87;;;;;;;;;;5093526;28;20486;-74
2021/09/01 02:25:17;;;;;;;15.60;6.70;;;;;;;;;;5093882;28;20527;-74
2021/09/01 02:27:44;;;;;;;20.03;6.77;;;;;;;;;;5093727;28;20439;-74
2021/09/01 02:30:12;;;;;;;12.20;6.60;;;;;;;;;;5093448;28;21017;-74
2021/09/01 02:32:40;;;;;;;13.77;6.60;;;;;;;;;;5093638;28;20475;-74
2021/09/01 02:35:09;;;;;;;13.83;6.00;;;;;;;;;;5093647;28;20814;-74
2021/09/01 02:37:36;;;;;;;9.07;5.33;;;;;;;;;;5094033;28;20527;-74
2021/09/01 02:40:03;;;;;;;11.27;6.23;;;;;;;;;;5093272;28;20445;-74
2021/09/01 02:42:31;;;;;;;16.10;6.40;;;;;;;;;;5093188;28;20479;-74
2021/09/01 02:44:59;;;;;;;9.40;6.27;;;;;;;;;;5094146;28;20536;-74
2021/09/01 02:47:27;;;;;;;14.00;6.83;;;;;;;;;;5094409;28;20445;-74
2021/09/01 02:49:54;;;;;;;12.80;6.63;;;;;;;;;;5093268;28;20437;-74
2021/09/01 02:52:22;;;;;;;11.33;6.17;;;;;;;;;;5093115;28;20964;-73
2021/09/01 02:54:50;;;;;;;13.57;6.20;;;;;;;;;;5093643;28;20435;-74
2021/09/01 02:57:17;;;;;;;14.00;6.20;;;;;;;;;;5093452;28;20435;-74
2021/09/01 02:59:44;;;;;;;12.03;6.70;;;;;;;;;;5093144;28;20435;-74
2021/09/01 03:02:11;;;;;;;8.70;5.40;;;;;;;;;;5093310;28;20475;-74
2021/09/01 03:04:38;;;;;;;7.70;5.37;;;;;;;;;;5093080;28;20450;-74
2021/09/01 03:07:05;;;;;;;8.83;5.00;;;;;;;;;;5093406;28;20451;-74
2021/09/01 03:09:34;;;;;;;12.37;5.43;;;;;;;;;;5093023;28;20964;-74
2021/09/01 03:12:01;;;;;;;9.57;5.00;;;;;;;;;;5093287;28;20446;-74
2021/09/01 03:14:28;;;;;;;12.60;5.00;;;;;;;;;;5093319;28;20439;-74
2021/09/01 03:16:56;;;;;;;12.43;4.90;;;;;;;;;;5092923;28;20440;-74
2021/09/01 03:19:23;;;;;;;10.23;5.50;;;;;;;;;;5093282;28;20436;-74
2021/09/01 03:21:50;;;;;;;11.00;5.67;;;;;;;;;;5094870;28;20438;-74
2021/09/01 03:24:17;;;;;;;16.20;5.87;;;;;;;;;;5096671;28;20538;-74
2021/09/01 03:26:46;;;;;;;9.13;5.00;;;;;;;;;;5096956;28;20448;-74
2021/09/01 03:29:13;;;;;;;9.47;4.60;;;;;;;;;;5096930;28;20442;-74
2021/09/01 03:31:40;;;;;;;12.60;5.43;;;;;;;;;;5096919;28;20447;-74
2021/09/01 03:34:08;;;;;;;9.20;5.00;;;;;;;;;;5097045;28;20447;-74
2021/09/01 03:36:35;;;;;;;12.10;5.50;;;;;;;;;;5096736;28;20445;-74
2021/09/01 03:39:02;;;;;;;14.63;5.50;;;;;;;;;;5096719;28;20446;-74
2021/09/01 03:41:29;;;;;;;14.10;5.70;;;;;;;;;;5097023;28;20943;-74
2021/09/01 03:43:58;;;;;;;11.80;6.00;;;;;;;;;;5097144;28;20490;-74
2021/09/01 03:46:25;;;;;;;13.20;5.50;;;;;;;;;;5096236;28;20447;-74
2021/09/01 03:48:52;;;;;;;17.07;5.23;;;;;;;;;;5096240;28;20450;-74
2021/09/01 03:51:19;;;;;;;8.43;5.57;;;;;;;;;;5096505;28;20806;-74
2021/09/01 03:53:46;;;;;;;10.63;6.43;;;;;;;;;;5095884;28;20988;-74
2021/09/01 03:56:13;;;;;;;19.30;7.00;;;;;;;;;;5096367;28;20805;-74
2021/09/01 03:58:41;;;;;;;12.37;5.20;;;;;;;;;;5096480;28;20436;-74
2021/09/01 04:01:10;;;;;;;7.20;5.57;;;;;;;;;;5096314;28;20443;-74
2021/09/01 04:03:37;;;;;;;16.97;6.27;;;;;;;;;;5096185;28;20876;-74
2021/09/01 04:06:05;;;;;;;11.50;5.87;;;;;;;;;;5095922;28;20929;-73
2021/09/01 04:08:32;;;;;;;9.83;6.80;;;;;;;;;;5095881;28;20449;-74
2021/09/01 04:10:59;;;;;;;15.33;6.70;;;;;;;;;;5096304;28;20452;-76
2021/09/01 04:13:26;;;;;;;14.90;5.67;;;;;;;;;;5096239;28;20448;-75
2021/09/01 04:15:53;;;;;;;15.47;6.00;;;;;;;;;;5095730;28;20535;-75
2021/09/01 04:18:22;;;;;;;14.50;5.90;;;;;;;;;;5095615;28;20450;-75
2021/09/01 04:20:49;;;;;;;14.83;6.00;;;;;;;;;;5095559;28;20452;-76
2021/09/01 04:23:16;;;;;;;10.53;5.43;;;;;;;;;;5095837;28;20968;-73
2021/09/01 04:25:43;;;;;;;12.90;6.67;;;;;;;;;;5095822;28;20487;-74
2021/09/01 04:28:10;;;;;;;10.83;6.10;;;;;;;;;;5095762;28;20440;-74
2021/09/01 04:30:38;;;;;;;14.77;5.70;;;;;;;;;;5092344;28;20445;-74
2021/09/01 04:33:05;;;;;;;19.90;6.20;;;;;;;;;;5094792;28;20452;-74
2021/09/01 04:35:33;;;;;;;18.33;6.07;;;;;;;;;;5095791;28;20454;-74
2021/09/01 04:38:00;;;;;;;13.70;6.70;;;;;;;;;;5095536;28;20450;-75
2021/09/01 04:40:28;;;;;;;12.50;6.13;;;;;;;;;;5095215;28;20485;-75
2021/09/01 04:42:55;;;;;;;20.80;6.63;;;;;;;;;;5095098;28;20829;-75
2021/09/01 04:45:22;;;;;;;15.30;7.13;;;;;;;;;;5095386;28;20951;-75
2021/09/01 04:47:49;;;;;;;8.47;6.07;;;;;;;;;;5095251;28;20441;-74
2021/09/01 04:50:17;;;;;;;11.63;6.57;;;;;;;;;;5095313;28;20527;-74
2021/09/01 04:52:45;;;;;;;9.07;5.53;;;;;;;;;;5095278;28;20471;-74
2021/09/01 04:55:15;;;;;;;10.33;5.20;;;;;;;;;;5095348;28;20428;-74
2021/09/01 04:57:42;;;;;;;15.27;7.73;;;;;;;;;;5095095;28;20448;-74
2021/09/01 05:00:10;;;;;;;8.40;6.20;;;;;;;;;;5094846;28;20437;-74
2021/09/01 05:02:37;;;;;;;10.30;6.33;;;;;;;;;;5093659;28;20481;-75
2021/09/01 05:05:04;;;;;;;15.23;7.20;;;;;;;;;;5094520;28;20466;-74
2021/09/01 05:07:31;;;;;;;12.17;7.30;;;;;;;;;;5094340;28;20437;-74
2021/09/01 05:10:00;;;;;;;12.90;7.40;;;;;;;;;;5094923;28;20438;-74
2021/09/01 05:12:27;;;;;;;11.47;7.37;;;;;;;;;;5094848;28;20530;-74
2021/09/01 05:14:55;;;;;;;13.10;7.47;;;;;;;;;;5094871;28;20448;-74
2021/09/01 05:17:22;;;;;;;14.27;7.43;;;;;;;;;;5094607;28;20437;-75
2021/09/01 05:19:49;;;;;;;13.27;7.97;;;;;;;;;;5094174;28;20874;-75
2021/09/01 05:22:18;;;;;;;17.20;8.07;;;;;;;;;;5094638;28;20436;-74
2021/09/01 05:24:49;;;;;;;13.07;7.27;;;;;;;;;;5094304;28;20475;-74
2021/09/01 05:27:18;;;;;;;13.07;7.73;;;;;;;;;;5094084;28;20433;-75
2021/09/01 05:29:46;;;;;;;16.67;7.33;;;;;;;;;;5093276;28;20439;-74
2021/09/01 05:32:15;;;;;;;11.37;7.30;;;;;;;;;;5092223;28;20457;-75
2021/09/01 05:34:43;;;;;;;17.00;8.30;;;;;;;;;;5094462;28;20437;-74
2021/09/01 05:37:12;;;;;;;17.73;8.47;;;;;;;;;;5094288;28;20436;-75
2021/09/01 05:39:42;;;;;;;12.20;7.57;;;;;;;;;;5094383;28;20448;-75
2021/09/01 05:42:09;;;;;;;12.93;7.50;;;;;;;;;;5094314;28;20443;-74
2021/09/01 05:44:38;;;;;;;14.13;7.13;;;;;;;;;;5093867;28;21014;-74
2021/09/01 05:47:05;;;;;;;17.53;8.93;;;;;;;;;;5093738;28;20446;-75
2021/09/01 05:49:34;;;;;;;15.07;8.63;;;;;;;;;;5093923;28;20447;-75
2021/09/01 05:52:01;;;;;;;17.70;8.90;;;;;;;;;;5094091;28;20446;-75
2021/09/01 05:54:29;;;;;;;14.23;7.80;;;;;;;;;;5094471;28;20936;-76
2021/09/01 05:56:57;;;;;;;15.00;7.50;;;;;;;;;;5093493;28;20443;-75
2021/09/01 05:59:25;;;;;;;17.50;8.40;;;;;;;;;;5094156;28;20441;-74
2021/09/01 06:01:57;;;;;;;12.07;7.17;;;;;;;;;;5091979;28;20440;-74
2021/09/01 06:04:25;;;;;;;23.73;8.30;;;;;;;;;;5094068;28;20496;-74
2021/09/01 06:06:54;;;;;;;13.00;7.23;;;;;;;;;;5094008;28;20445;-74
2021/09/01 06:09:21;;;;;;;14.87;7.40;;;;;;;;;;5093433;28;20446;-73
2021/09/01 06:11:50;;;;;;;12.60;8.33;;;;;;;;;;5093848;28;20438;-74
2021/09/01 06:14:17;;;;;;;12.67;7.70;;;;;;;;;;5093801;28;20451;-74
2021/09/01 06:16:44;;;;;;;14.47;8.03;;;;;;;;;;5093528;28;20451;-74
2021/09/01 06:19:13;;;;;;;16.30;8.20;;;;;;;;;;5093357;28;20436;-74
2021/09/01 06:21:40;;;;;;;14.23;8.07;;;;;;;;;;5092830;28;20446;-73
2021/09/01 06:24:07;;;;;;;9.50;7.60;;;;;;;;;;5093438;28;20532;-74
2021/09/01 06:26:34;;;;;;;17.63;9.47;;;;;;;;;;5093413;28;20446;-74
2021/09/01 06:29:01;;;;;;;15.83;8.13;;;;;;;;;;5093580;28;20440;-73
2021/09/01 06:31:34;;;;;;;11.87;7.90;;;;;;;;;;5092080;28;20533;-74
2021/09/01 06:34:02;;;;;;;19.40;8.40;;;;;;;;;;5094558;28;20469;-77
2021/09/01 06:36:30;;;;;;;12.67;8.03;;;;;;;;;;5094388;28;20445;-82
2021/09/01 06:38:57;;;;;;;18.97;8.13;;;;;;;;;;5093882;28;20436;-74
2021/09/01 06:41:24;;;;;;;18.07;7.73;;;;;;;;;;5093598;28;20461;-74
2021/09/01 06:43:52;;;;;;;20.03;8.13;;;;;;;;;;5093424;28;20482;-74
2021/09/01 06:46:19;;;;;;;18.10;8.00;;;;;;;;;;5093213;28;20451;-73
2021/09/01 06:48:46;;;;;;;9.90;7.20;;;;;;;;;;5093209;28;20436;-74
2021/09/01 06:51:13;;;;;;;18.10;8.30;;;;;;;;;;5093165;28;20951;-74
2021/09/01 06:53:42;;;;;;;13.67;9.43;;;;;;;;;;5093350;28;20999;-74
2021/09/01 06:56:09;;;;;;;15.30;7.53;;;;;;;;;;5093514;28;20448;-74
2021/09/01 06:58:37;;;;;;;14.53;8.10;;;;;;;;;;5097600;28;20443;-74
2021/09/01 07:01:04;;;;;;;16.90;8.30;;;;;;;;;;5097146;28;20923;-76
2021/09/01 07:03:31;;;;;;;16.00;7.70;;;;;;;;;;5097263;28;20514;-72
2021/09/01 07:05:58;;;;;;;22.13;9.80;;;;;;;;;;5096672;28;20859;-74
2021/09/01 07:08:25;;;;;;;12.43;8.00;;;;;;;;;;5096005;28;20192;-74
2021/09/01 07:10:54;;;;;;;14.63;8.27;;;;;;;;;;5096940;28;20439;-74
2021/09/01 07:13:21;;;;;;;22.93;7.83;;;;;;;;;;5097026;28;20474;-74
2021/09/01 07:15:49;;;;;;;17.80;9.03;;;;;;;;;;5096754;28;20456;-75
2021/09/01 07:18:16;;;;;;;14.97;9.10;;;;;;;;;;5097008;28;20439;-75
2021/09/01 07:20:45;;;;;;;13.17;7.70;;;;;;;;;;5096371;28;20440;-75
2021/09/01 07:23:13;;;;;;;15.13;7.87;;;;;;;;;;5096153;28;20456;-74
2021/09/01 07:25:40;;;;;;;19.27;8.67;;;;;;;;;;5096929;28;20444;-74
2021/09/01 07:28:08;;;;;;;15.17;7.70;;;;;;;;;;5096582;28;20452;-74
2021/09/01 07:30:36;;;;;;;13.90;7.90;;;;;;;;;;5096498;28;20451;-74
2021/09/01 07:33:03;;;;;;;18.93;8.37;;;;;;;;;;5096218;28;20543;-75
2021/09/01 07:35:30;;;;;;;14.70;8.03;;;;;;;;;;5096432;28;20466;-75
2021/09/01 07:37:57;;;;;;;12.83;8.17;;;;;;;;;;5094098;28;20453;-74
2021/09/01 07:40:25;;;;;;;16.83;9.27;;;;;;;;;;5096379;28;20449;-75
2021/09/01 07:42:54;;;;;;;13.83;9.73;;;;;;;;;;5096778;28;20443;-74
2021/09/01 07:45:23;;;;;;;16.27;9.63;;;;;;;;;;5096187;28;20483;-74
2021/09/01 07:47:51;;;;;;;15.73;9.10;;;;;;;;;;5097041;28;20450;-75
2021/09/01 07:50:18;;;;;;;13.93;8.80;;;;;;;;;;5096154;28;20437;-74
2021/09/01 07:52:45;;;;;;;18.60;9.80;;;;;;;;;;5095815;28;20801;-74
2021/09/01 07:55:13;;;;;;;18.67;10.47;;;;;;;;;;5095896;28;20436;-74
2021/09/01 07:57:41;;;;;;;15.27;10.97;;;;;;;;;;5096328;28;20438;-75
2021/09/01 08:00:09;;;;;;;16.97;10.00;;;;;;;;;;5095950;28;20440;-74
2021/09/01 08:02:37;;;;;;;12.27;8.40;;;;;;;;;;5096245;28;20448;-76
2021/09/01 08:05:05;;;;;;;15.30;11.60;;;;;;;;;;5096338;28;20477;-74
2021/09/01 08:07:33;;;;;;;22.03;9.47;;;;;;;;;;5095604;28;20453;-78
2021/09/01 08:10:00;;;;;;;19.53;9.83;;;;;;;;;;5092809;28;20446;-71
2021/09/01 08:12:27;;;;;;;15.27;9.73;;;;;;;;;;5096088;28;20846;-72
2021/09/01 08:14:54;;;;;;;16.07;10.07;;;;;;;;;;5095804;28;20767;-72
2021/09/01 08:17:21;;;;;;;16.70;10.03;;;;;;;;;;5096351;28;20439;-71
2021/09/01 08:19:50;;;;;;;13.67;8.40;;;;;;;;;;5095924;28;20446;-71
2021/09/01 08:22:17;;;;;;;19.73;8.70;;;;;;;;;;5095284;28;20463;-71
2021/09/01 08:24:44;;;;;;;13.00;8.83;;;;;;;;;;5095456;28;20475;-71
2021/09/01 08:27:12;;;;;;;14.00;8.87;;;;;;;;;;5095499;28;20446;-72
2021/09/01 08:29:40;;;;;;;12.40;8.17;;;;;;;;;;5095400;28;20454;-71
2021/09/01 08:32:07;;;;;;;14.23;9.23;;;;;;;;;;5095621;28;20442;-71
2021/09/01 08:34:35;;;;;;;16.57;7.90;;;;;;;;;;5095198;28;20440;-71
2021/09/01 08:37:04;;;;;;;14.63;7.33;;;;;;;;;;5095991;28;20433;-71
2021/09/01 08:39:31;;;;;;;14.77;7.37;;;;;;;;;;5095535;28;20853;-69
2021/09/01 08:42:00;;;;;;;18.23;8.57;;;;;;;;;;5093219;28;20951;-71
2021/09/01 08:44:27;;;;;;;13.70;6.83;;;;;;;;;;5095263;28;20486;-71
2021/09/01 08:46:57;;;;;;;12.40;7.50;;;;;;;;;;5094142;28;20535;-71
2021/09/01 08:49:26;;;;;;;10.80;6.27;;;;;;;;;;5095348;28;20438;-71
2021/09/01 08:51:53;;;;;;;9.33;6.80;;;;;;;;;;5094883;28;20953;-71
2021/09/01 08:54:22;;;;;;;14.40;7.77;;;;;;;;;;5095354;28;20478;-71
2021/09/01 08:56:49;;;;;;;10.30;5.63;;;;;;;;;;5095010;28;20444;-71
2021/09/01 08:59:16;;;;;;;11.97;6.67;;;;;;;;;;5094567;28;20448;-71
2021/09/01 09:01:45;;;;;;;10.60;5.87;;;;;;;;;;5095072;28;20440;-71
2021/09/01 09:04:17;;;;;;;8.00;5.87;;;;;;;;;;5094936;28;20481;-71
2021/09/01 09:06:45;;;;;;;13.23;6.10;;;;;;;;;;5094879;28;20437;-73
2021/09/01 09:09:12;;;;;;;19.63;6.70;;;;;;;;;;5094858;28;20447;-72
2021/09/01 09:11:41;;;;;;;13.07;7.40;;;;;;;;;;5093004;28;20459;-73
2021/09/01 09:14:22;;;;;;;9.13;5.97;;;;;;;;;;5094570;28;20456;-71
2021/09/01 09:16:59;;;;;;;10.90;5.83;;;;;;;;;;5094642;28;20444;-72
2021/09/01 09:19:42;;;;;;;10.33;6.43;;;;;;;;;;5094538;28;20437;-72
2021/09/01 09:22:09;;;;;;;13.40;6.80;;;;;;;;;;5094988;28;20423;-72
2021/09/01 09:24:37;;;;;;;12.20;6.50;;;;;;;;;;5094057;28;20542;-72
2021/09/01 09:27:05;;;;;;;17.57;6.93;;;;;;;;;;5094544;28;20535;-72
2021/09/01 09:29:33;;;;;;;16.80;6.57;;;;;;;;;;5093915;28;20444;-72
2021/09/01 09:32:01;;;;;;;12.30;7.07;;;;;;;;;;5095073;28;20767;-72
2021/09/01 09:34:34;;;;;;;11.00;6.43;;;;;;;;;;5094622;28;20444;-71
2021/09/01 09:37:02;;;;;;;16.13;6.67;;;;;;;;;;5094498;28;20424;-73
2021/09/01 09:39:47;;;;;;;11.50;6.93;;;;;;;;;;5093982;28;20943;-72
2021/09/01 09:42:29;;;;;;;14.13;6.90;;;;;;;;;;5092225;28;20920;-73
2021/09/01 09:44:57;;;;;;;22.40;8.10;;;;;;;;;;5094721;28;20498;-73
2021/09/01 09:47:44;;;;;;;9.40;6.90;;;;;;;;;;5093463;28;20446;-73
2021/09/01 09:50:11;;;;;;;8.33;6.50;;;;;;;;;;5094425;28;20428;-73
2021/09/01 09:52:39;;;;;;;16.97;6.37;;;;;;;;;;5093641;28;20882;-73
2021/09/01 09:55:10;;;;;;;13.80;6.47;;;;;;;;;;5093922;28;20434;-73
2021/09/01 09:57:47;;;;;;;10.67;6.80;;;;;;;;;;5093947;28;20493;-73
2021/09/01 10:00:16;;;;;;;11.17;6.87;;;;;;;;;;5094052;28;20468;-73
2021/09/01 10:02:43;;;;;;;13.03;7.13;;;;;;;;;;5094290;28;20436;-74
2021/09/01 10:05:13;;;;;;;17.60;6.70;;;;;;;;;;5094115;28;20476;-73
2021/09/01 10:07:40;;;;;;;19.97;7.13;;;;;;;;;;5093733;28;20441;-72
2021/09/01 10:10:07;;;;;;;10.80;6.70;;;;;;;;;;5093345;28;20445;-73
2021/09/01 10:12:36;;;;;;;15.63;8.07;;;;;;;;;;5090745;28;20451;-73
2021/09/01 10:15:06;;;;;;;15.00;7.03;;;;;;;;;;5073388;28;21009;-73
2021/09/01 10:17:38;;;;;;;13.30;7.37;;;;;;;;;;5073753;28;20531;-73
2021/09/01 10:20:06;;;;;;;13.87;8.20;;;;;;;;;;5073636;28;20858;-73
2021/09/01 10:22:33;;;;;;;11.20;8.10;;;;;;;;;;5073523;28;20535;-73
2021/09/01 10:25:00;;;;;;;15.33;7.63;;;;;;;;;;5072752;28;20473;-72
2021/09/01 10:27:29;;;;;;;12.07;7.70;;;;;;;;;;5073165;28;20436;-73
2021/09/01 10:29:58;;;;;;;13.10;7.40;;;;;;;;;;5073933;28;20449;-72
2021/09/01 10:32:28;;;;;;;18.70;8.30;;;;;;;;;;5072362;28;20447;-72
2021/09/01 10:35:16;;;;;;;15.93;8.37;;;;;;;;;;5073560;28;20445;-73
2021/09/01 10:37:44;;;;;;;12.10;7.23;;;;;;;;;;5072584;28;20464;-72
2021/09/01 10:40:13;;;;;;;12.03;7.57;;;;;;;;;;5073449;28;20440;-72
2021/09/01 10:42:41;;;;;;;12.10;7.30;;;;;;;;;;5075790;28;20466;-73
2021/09/01 10:45:14;;;;;;;14.57;7.80;;;;;;;;;;5091855;28;20476;-72
2021/09/01 10:48:09;;;;;;;10.20;6.50;;;;;;;;;;5093259;28;20464;-72
2021/09/01 10:50:38;;;;;;;12.77;6.00;;;;;;;;;;5057928;28;20452;-73
2021/09/01 10:53:09;;;;;;;12.30;6.60;;;;;;;;;;5093239;28;20468;-72
2021/09/01 10:55:47;;;;;;;11.30;6.37;;;;;;;;;;5093647;28;20428;-72
2021/09/01 10:58:35;;;;;;;13.03;6.33;;;;;;;;;;5093455;28;20429;-72
2021/09/01 11:01:07;;;;;;;11.90;6.50;;;;;;;;;;5088672;28;20450;-73
2021/09/01 11:50:30;;;;;;;12.50;7.37;;;;;;;;;;5089579;28;20535;-73
2021/09/01 11:52:57;;;;;;;15.60;6.90;;;;;;;;;;5089222;28;20439;-73
2021/09/01 11:55:25;;;;;;;12.07;5.90;;;;;;;;;;5090086;28;20437;-73
2021/09/01 11:57:52;;;;;;;18.70;6.30;;;;;;;;;;5090662;28;20440;-73
2021/09/01 12:00:20;;;;;;;10.00;5.63;;;;;;;;;;5090416;28;20885;-73
2021/09/01 12:02:50;;;;;;;15.33;6.53;;;;;;;;;;5090703;28;20434;-73
2021/09/01 12:05:34;;;;;;;10.43;6.10;;;;;;;;;;5090341;28;20443;-73
2021/09/01 12:08:03;;;;;;;11.40;5.93;;;;;;;;;;5090684;28;20463;-73
2021/09/01 12:10:31;;;;;;;20.23;6.30;;;;;;;;;;5090350;28;20528;-73
2021/09/01 12:13:01;;;;;;;11.43;6.50;;;;;;;;;;5088561;28;20440;-73
2021/09/01 12:15:28;;;;;;;13.77;5.90;;;;;;;;;;5090525;28;20452;-73
2021/09/01 12:18:03;;;;;;;9.83;5.53;;;;;;;;;;5089612;28;20448;-73
2021/09/01 12:20:33;;;;;;;10.90;5.83;;;;;;;;;;5090024;28;20452;-73
2021/09/01 12:23:00;;;;;;;9.57;5.50;;;;;;;;;;5089909;28;20562;-73
2021/09/01 12:25:29;;;;;;;10.83;6.33;;;;;;;;;;5089925;28;20447;-73
2021/09/01 12:28:10;;;;;;;9.77;5.37;;;;;;;;;;5090092;28;20442;-73
2021/09/01 12:30:40;;;;;;;9.03;6.53;;;;;;;;;;5089409;28;20507;-72
2021/09/01 12:33:11;;;;;;;11.83;5.93;;;;;;;;;;5089845;28;20513;-73
2021/09/01 12:35:38;;;;;;;6.40;5.70;;;;;;;;;;5090725;28;20778;-73
2021/09/01 12:38:07;;;;;;;12.60;6.97;;;;;;;;;;5089516;28;20441;-73
2021/09/01 12:40:37;;;;;;;13.67;7.17;;;;;;;;;;5089437;28;20447;-72
2021/09/01 12:43:05;;;;;;;13.83;6.77;;;;;;;;;;5088561;28;20436;-72
2021/09/01 12:45:33;;;;;;;12.10;6.77;;;;;;;;;;5108061;28;20449;-72
2021/09/01 12:48:01;;;;;;;12.00;7.00;;;;;;;;;;5109698;28;20921;-73
2021/09/01 12:50:29;;;;;;;9.20;6.50;;;;;;;;;;5101841;28;20476;-72
2021/09/01 12:52:56;;;;;;;13.07;6.77;;;;;;;;;;5096125;28;20442;-72
2021/09/01 12:55:27;;;;;;;8.60;6.27;;;;;;;;;;5095423;28;20444;-72
2021/09/01 12:57:55;;;;;;;12.13;7.37;;;;;;;;;;5095953;28;20428;-73
2021/09/01 13:00:23;;;;;;;13.70;7.37;;;;;;;;;;5096678;28;20550;-73
2021/09/01 13:02:50;;;;;;;12.43;6.33;;;;;;;;;;5096909;28;20444;-72
2021/09/01 13:05:17;;;;;;;10.23;7.50;;;;;;;;;;5096039;28;20529;-72
2021/09/01 13:07:45;;;;;;;16.40;8.07;;;;;;;;;;5095671;28;20449;-72
2021/09/01 13:10:12;;;;;;;10.23;6.77;;;;;;;;;;5095920;28;20539;-72
2021/09/01 13:12:40;;;;;;;12.00;7.30;;;;;;;;;;5095256;28;20475;-76
2021/09/01 13:15:09;;;;;;;9.50;6.23;;;;;;;;;;5091307;28;20520;-70
2021/09/01 13:17:39;;;;;;;10.20;6.20;;;;;;;;;;5095449;28;20437;-68
2021/09/01 13:20:07;;;;;;;10.73;6.33;;;;;;;;;;5095597;28;20808;-74
2021/09/01 13:22:35;;;;;;;11.13;6.70;;;;;;;;;;5095481;28;20461;-72
2021/09/01 13:25:02;;;;;;;9.40;6.07;;;;;;;;;;5095673;28;20448;-73
2021/09/01 13:27:29;;;;;;;7.10;5.80;;;;;;;;;;5095553;28;20442;-73
2021/09/01 13:29:57;;;;;;;13.77;7.30;;;;;;;;;;5095589;28;20472;-73
2021/09/01 13:32:25;;;;;;;11.27;6.90;;;;;;;;;;5094658;28;20444;-73
2021/09/01 13:34:53;;;;;;;11.20;7.20;;;;;;;;;;5095709;28;20456;-73
2021/09/01 13:37:20;;;;;;;11.87;7.10;;;;;;;;;;5095336;28;20456;-73
2021/09/01 13:39:47;;;;;;;8.90;6.37;;;;;;;;;;5095205;28;20450;-72
2021/09/01 13:42:14;;;;;;;8.90;6.70;;;;;;;;;;5094967;28;20438;-72
2021/09/01 13:44:42;;;;;;;8.77;6.40;;;;;;;;;;5094769;28;20440;-73
2021/09/01 13:47:09;;;;;;;10.13;7.17;;;;;;;;;;5080189;28;20452;-73
2021/09/01 13:49:38;;;;;;;9.63;6.47;;;;;;;;;;5074397;28;20502;-73
2021/09/01 13:52:06;;;;;;;9.90;6.57;;;;;;;;;;5075397;28;20448;-74
2021/09/01 13:54:33;;;;;;;9.27;6.23;;;;;;;;;;5074703;28;20447;-73
2021/09/01 13:57:00;;;;;;;13.40;6.80;;;;;;;;;;5074201;28;20456;-73
2021/09/01 13:59:28;;;;;;;9.00;6.07;;;;;;;;;;5074967;28;20854;-73
2021/09/01 14:01:55;;;;;;;10.93;5.97;;;;;;;;;;5073101;28;20941;-72
2021/09/01 14:04:23;;;;;;;8.37;6.60;;;;;;;;;;5074359;28;20964;-73
2021/09/01 14:06:51;;;;;;;19.03;6.83;;;;;;;;;;5074458;28;20783;-73
2021/09/01 14:09:18;;;;;;;7.57;5.90;;;;;;;;;;5074210;28;20480;-74
2021/09/01 14:11:46;;;;;;;10.90;5.70;;;;;;;;;;5074690;28;20773;-73
2021/09/01 14:14:14;;;;;;;6.60;5.90;;;;;;;;;;5073947;28;20469;-73
2021/09/01 14:16:42;;;;;;;8.63;6.50;;;;;;;;;;5072744;28;20446;-72
2021/09/01 14:19:09;;;;;;;8.33;6.90;;;;;;;;;;5053898;28;20454;-73
2021/09/01 14:21:36;;;;;;;9.43;7.20;;;;;;;;;;5054012;28;20453;-74
2021/09/01 14:24:05;;;;;;;9.87;8.13;;;;;;;;;;5053773;28;20471;-74
2021/09/01 14:26:32;;;;;;;9.30;6.80;;;;;;;;;;5053981;28;20447;-74
2021/09/01 14:28:59;;;;;;;11.27;8.00;;;;;;;;;;5053770;28;20474;-74
2021/09/01 14:31:26;;;;;;;11.40;6.90;;;;;;;;;;5053563;28;20968;-73
2021/09/01 14:33:53;;;;;;;8.27;6.33;;;;;;;;;;5053868;28;20442;-74
2021/09/01 14:36:21;;;;;;;14.40;7.73;;;;;;;;;;5054042;28;20537;-73
2021/09/01 14:38:48;;;;;;;13.73;9.07;;;;;;;;;;5053587;28;20961;-73
2021/09/01 14:41:16;;;;;;;10.23;6.87;;;;;;;;;;5053701;28;20446;-74
2021/09/01 14:43:44;;;;;;;14.23;6.67;;;;;;;;;;5053037;28;20468;-73
2021/09/01 14:46:11;;;;;;;10.90;6.50;;;;;;;;;;5053819;28;20445;-73
2021/09/01 14:48:38;;;;;;;11.73;7.10;;;;;;;;;;5080531;28;20467;-73
2021/09/01 14:51:05;;;;;;;10.40;6.90;;;;;;;;;;5093829;28;20451;-74
2021/09/01 14:53:33;;;;;;;11.63;6.57;;;;;;;;;;5093577;28;20444;-73
2021/09/01 14:56:00;;;;;;;7.37;6.33;;;;;;;;;;5092826;28;20449;-73
2021/09/01 14:58:29;;;;;;;14.87;7.80;;;;;;;;;;5093710;28;20805;-73
2021/09/01 15:00:56;;;;;;;13.07;6.73;;;;;;;;;;5093836;28;20443;-73
2021/09/01 15:03:23;;;;;;;10.67;7.17;;;;;;;;;;5093155;28;20447;-75
2021/09/01 15:05:53;;;;;;;10.77;7.17;;;;;;;;;;5093177;28;20451;-74
2021/09/01 15:08:20;;;;;;;9.30;6.60;;;;;;;;;;5091942;28;20515;-74
2021/09/01 15:10:48;;;;;;;9.10;7.03;;;;;;;;;;5092519;28;20481;-74
2021/09/01 15:13:15;;;;;;;10.27;7.00;;;;;;;;;;5092553;28;20540;-73
2021/09/01 15:15:45;;;;;;;11.53;6.93;;;;;;;;;;5093669;28;20962;-73
2021/09/01 15:18:13;;;;;;;12.50;8.10;;;;;;;;;;5093351;28;20543;-74
2021/09/01 15:20:40;;;;;;;8.83;7.23;;;;;;;;;;5090853;28;20533;-73
2021/09/01 15:23:07;;;;;;;11.20;7.47;;;;;;;;;;5093165;28;20457;-73
2021/09/01 15:25:34;;;;;;;11.60;7.83;;;;;;;;;;5092773;28;20527;-73